createdAt,value
2023-05-25T00:09:10.352Z,47.3
2023-05-25T00:10:20.895Z,47.4
2023-05-25T00:12:19.356Z,47.6
2023-05-25T00:14:20.464Z,48.1
2023-05-25T00:16:19.327Z,48.7
2023-05-25T00:18:20.490Z,49.2
2023-05-25T00:20:19.414Z,49.9
2023-05-25T00:22:19.367Z,49.6
2023-05-25T00:24:19.396Z,50
2023-05-25T00:26:19.457Z,50.6
2023-05-25T00:28:21.912Z,50.8
2023-05-25T00:30:20.800Z,51.1
2023-05-25T00:32:19.352Z,51.1
2023-05-25T00:34:19.365Z,51.1
2023-05-25T00:36:19.376Z,51.8
2023-05-25T00:38:19.355Z,51.8
2023-05-25T00:40:19.374Z,51.8
2023-05-25T00:42:19.364Z,51.9
2023-05-25T00:44:19.551Z,52.3
2023-05-25T00:46:19.400Z,53.1
2023-05-25T00:48:20.367Z,52.9
2023-05-25T00:50:19.345Z,53.1
2023-05-25T00:52:19.291Z,53.8
2023-05-25T00:54:19.326Z,54.5
2023-05-25T00:56:19.415Z,54.8
2023-05-25T00:58:19.414Z,54.4
2023-05-25T01:00:19.383Z,54.4
2023-05-25T01:02:19.461Z,54.6
2023-05-25T01:04:19.310Z,55
2023-05-25T01:06:19.430Z,55.7
2023-05-25T01:08:19.542Z,55.5
2023-05-25T01:10:19.574Z,56
2023-05-25T01:12:19.426Z,56.4
2023-05-25T01:13:35.687Z,56.4
2023-05-25T01:14:20.572Z,56.5
2023-05-25T01:16:19.398Z,56.8
2023-05-25T01:18:19.287Z,56.5
2023-05-25T01:20:19.272Z,56.6
2023-05-25T01:22:19.347Z,56.7
2023-05-25T01:24:23.479Z,56.9
2023-05-25T01:26:19.270Z,57.5
2023-05-25T01:28:19.390Z,57.2
2023-05-25T01:30:19.277Z,57.3
2023-05-25T01:32:19.385Z,57.5
2023-05-25T01:34:21.345Z,57.2
2023-05-25T01:36:19.370Z,57.7
2023-05-25T01:38:19.258Z,57.5
2023-05-25T01:40:19.287Z,57.7
2023-05-25T01:42:19.277Z,57.8
2023-05-25T01:44:19.243Z,57.9
2023-05-25T01:46:19.302Z,58.4
2023-05-25T01:48:19.312Z,58.1
2023-05-25T01:50:19.244Z,58.5
2023-05-25T01:52:19.356Z,58.6
2023-05-25T01:54:19.264Z,58.6
2023-05-25T01:56:19.226Z,59
2023-05-25T01:58:19.210Z,58.8
2023-05-25T02:00:19.313Z,58.8
2023-05-25T02:02:20.728Z,58.8
2023-05-25T02:04:19.418Z,58.9
2023-05-25T02:06:19.321Z,59.2
2023-05-25T02:08:19.581Z,59
2023-05-25T02:10:19.258Z,59.2
2023-05-25T02:12:20.829Z,59.3
2023-05-25T02:14:19.300Z,59.4
2023-05-25T02:16:19.366Z,59.6
2023-05-25T02:18:19.228Z,59.4
2023-05-25T02:20:19.331Z,59.3
2023-05-25T02:22:19.433Z,59.3
2023-05-25T02:24:19.277Z,59.3
2023-05-25T02:26:19.284Z,59.6
2023-05-25T02:28:19.225Z,59.4
2023-05-25T02:30:19.300Z,59.6
2023-05-25T02:32:20.426Z,59.7
2023-05-25T02:34:19.202Z,59.7
2023-05-25T02:36:19.227Z,60
2023-05-25T02:38:19.228Z,59.9
2023-05-25T02:40:19.221Z,59.7
2023-05-25T02:42:19.190Z,59.8
2023-05-25T02:44:19.284Z,59.9
2023-05-25T02:46:19.185Z,60.4
2023-05-25T02:48:19.219Z,60.1
2023-05-25T02:50:20.489Z,60.2
2023-05-25T02:52:19.411Z,60.2
2023-05-25T02:54:19.283Z,60.2
2023-05-25T02:56:19.134Z,60.5
2023-05-25T02:58:19.161Z,60.3
2023-05-25T03:00:19.211Z,60.2
2023-05-25T03:02:19.170Z,60.3
2023-05-25T03:04:19.160Z,60.5
2023-05-25T03:06:19.613Z,60.9
2023-05-25T03:08:19.188Z,60.6
2023-05-25T03:10:19.177Z,60.7
2023-05-25T03:12:19.150Z,60.8
2023-05-25T03:14:19.133Z,60.9
2023-05-25T03:16:19.176Z,61.4
2023-05-25T03:18:19.160Z,61
2023-05-25T03:20:19.202Z,61.1
2023-05-25T03:22:19.133Z,61.3
2023-05-25T03:24:19.149Z,61.2
2023-05-25T03:26:19.224Z,61.5
2023-05-25T03:28:19.177Z,61.2
2023-05-25T03:30:19.305Z,61.2
2023-05-25T03:32:19.255Z,61.1
2023-05-25T03:34:19.110Z,61.2
2023-05-25T03:36:19.116Z,61.5
2023-05-25T03:38:19.170Z,61.4
2023-05-25T03:40:19.100Z,61.4
2023-05-25T03:42:19.187Z,61.4
2023-05-25T03:44:19.132Z,61.4
2023-05-25T03:46:19.130Z,61.6
2023-05-25T03:48:19.119Z,61.4
2023-05-25T03:50:19.110Z,61.5
2023-05-25T03:52:19.139Z,61.6
2023-05-25T03:54:20.380Z,61.6
2023-05-25T03:56:19.077Z,62
2023-05-25T03:58:19.046Z,61.9
2023-05-25T04:00:19.057Z,62
2023-05-25T04:02:19.518Z,62.3
2023-05-25T04:04:19.089Z,62.3
2023-05-25T04:06:19.075Z,62.7
2023-05-25T04:08:19.070Z,62.7
2023-05-25T04:10:19.042Z,62.8
2023-05-25T04:12:20.490Z,62.9
2023-05-25T04:14:19.043Z,62.9
2023-05-25T04:16:19.054Z,63.2
2023-05-25T04:18:19.109Z,63
2023-05-25T04:20:20.594Z,63
2023-05-25T04:22:19.102Z,63.2
2023-05-25T04:24:19.053Z,63.2
2023-05-25T04:26:19.103Z,63.6
2023-05-25T04:28:19.034Z,63.4
2023-05-25T04:30:19.157Z,63.6
2023-05-25T04:32:19.161Z,63.6
2023-05-25T04:34:19.095Z,63.6
2023-05-25T04:36:19.106Z,64
2023-05-25T04:38:19.094Z,63.7
2023-05-25T04:40:19.056Z,63.7
2023-05-25T04:42:19.038Z,63.7
2023-05-25T04:44:19.031Z,63.9
2023-05-25T04:46:19.059Z,64.1
2023-05-25T04:48:19.089Z,64.1
2023-05-25T04:50:19.060Z,64.2
2023-05-25T04:52:19.042Z,64.2
2023-05-25T04:54:19.011Z,64.2
2023-05-25T04:56:18.976Z,64.8
2023-05-25T04:58:19.076Z,64.4
2023-05-25T05:00:19.182Z,64.5
2023-05-25T05:02:20.315Z,64.7
2023-05-25T05:04:20.331Z,64.9
2023-05-25T05:06:19.079Z,65.3
2023-05-25T05:08:19.090Z,65
2023-05-25T05:10:19.005Z,65.1
2023-05-25T05:12:19.034Z,65
2023-05-25T05:14:19.028Z,65
2023-05-25T05:16:19.179Z,65.6
2023-05-25T05:18:19.005Z,65.2
2023-05-25T05:20:19.112Z,65.3
2023-05-25T05:22:18.955Z,65.7
2023-05-25T05:24:19.009Z,65.3
2023-05-25T05:26:18.982Z,65.7
2023-05-25T05:28:20.334Z,65.5
2023-05-25T05:30:19.022Z,65.4
2023-05-25T05:32:19.053Z,65.9
2023-05-25T05:34:18.950Z,65.8
2023-05-25T05:36:19.035Z,66.2
2023-05-25T05:38:18.997Z,65.8
2023-05-25T05:40:18.993Z,66
2023-05-25T05:42:19.059Z,66.1
2023-05-25T05:44:18.995Z,66.1
2023-05-25T05:46:18.970Z,66.3
2023-05-25T05:48:19.015Z,66.3
2023-05-25T05:50:18.930Z,66.3
2023-05-25T05:52:18.977Z,67
2023-05-25T05:54:18.954Z,66.6
2023-05-25T05:56:18.952Z,66.7
2023-05-25T05:58:19.006Z,66.5
2023-05-25T06:00:18.946Z,66.6
2023-05-25T06:02:19.055Z,66.8
2023-05-25T06:04:18.951Z,67
2023-05-25T06:06:20.134Z,67.1
2023-05-25T06:08:19.045Z,67.1
2023-05-25T06:10:18.960Z,67.1
2023-05-25T06:12:18.944Z,67
2023-05-25T06:14:18.939Z,67
2023-05-25T06:16:19.022Z,67.3
2023-05-25T06:18:18.931Z,67.3
2023-05-25T06:20:18.994Z,67.5
2023-05-25T06:22:18.916Z,67.7
2023-05-25T06:24:18.942Z,67.8
2023-05-25T06:26:18.897Z,67.9
2023-05-25T06:28:18.938Z,67.7
2023-05-25T06:30:18.884Z,67.8
2023-05-25T06:32:18.933Z,67.9
2023-05-25T06:34:18.978Z,67.7
2023-05-25T06:36:19.020Z,67.9
2023-05-25T06:38:18.955Z,67.9
2023-05-25T06:40:18.960Z,67.9
2023-05-25T06:42:18.937Z,68
2023-05-25T06:44:18.918Z,67.9
2023-05-25T06:46:18.950Z,68.2
2023-05-25T06:48:18.866Z,68.4
2023-05-25T06:50:18.987Z,68.4
2023-05-25T06:52:18.861Z,68.2
2023-05-25T06:54:18.951Z,68.4
2023-05-25T06:56:18.902Z,68.4
2023-05-25T06:58:18.869Z,68.4
2023-05-25T07:00:18.872Z,68.5
2023-05-25T07:02:18.979Z,68.4
2023-05-25T07:04:18.867Z,68.5
2023-05-25T07:06:19.954Z,68.9
2023-05-25T07:08:18.924Z,68.8
2023-05-25T07:10:18.902Z,69
2023-05-25T07:12:18.921Z,68.9
2023-05-25T07:14:18.945Z,68.8
2023-05-25T07:16:20.286Z,68.9
2023-05-25T07:18:18.871Z,69
2023-05-25T07:20:18.863Z,68.8
2023-05-25T07:22:18.891Z,68.8
2023-05-25T07:24:18.878Z,68.9
2023-05-25T07:26:18.880Z,69.2
2023-05-25T07:28:18.897Z,69.4
2023-05-25T07:30:18.864Z,69.4
2023-05-25T07:32:18.827Z,69.5
2023-05-25T07:34:18.846Z,69.7
2023-05-25T07:36:20.186Z,69.6
2023-05-25T07:38:18.871Z,69.7
2023-05-25T07:40:18.840Z,69.7
2023-05-25T07:42:18.852Z,69.6
2023-05-25T07:44:18.840Z,69.6
2023-05-25T07:46:18.858Z,69.7
2023-05-25T07:48:18.836Z,69.7
2023-05-25T07:50:18.853Z,69.9
2023-05-25T07:52:18.868Z,69.8
2023-05-25T07:54:18.824Z,69.9
2023-05-25T07:56:18.832Z,70
2023-05-25T07:58:18.811Z,70.2
2023-05-25T08:00:18.799Z,70.1
2023-05-25T08:02:18.859Z,70
2023-05-25T08:04:19.021Z,70
2023-05-25T08:06:18.814Z,70.1
2023-05-25T08:08:18.789Z,70.2
2023-05-25T08:10:18.820Z,70.2
2023-05-25T08:12:30.454Z,70.2
2023-05-25T08:14:18.787Z,70.3
2023-05-25T08:16:19.108Z,70.3
2023-05-25T08:18:18.800Z,70.4
2023-05-25T08:20:18.897Z,70.4
2023-05-25T08:22:20.190Z,70.3
2023-05-25T08:24:18.759Z,70.4
2023-05-25T08:26:34.584Z,70.5
2023-05-25T08:28:18.792Z,70.5
2023-05-25T08:30:18.801Z,70.8
2023-05-25T08:32:18.747Z,70.8
2023-05-25T08:34:18.946Z,70.4
2023-05-25T08:36:18.764Z,70.4
2023-05-25T08:38:18.788Z,70.5
2023-05-25T08:40:18.756Z,70.5
2023-05-25T08:42:18.739Z,70.5
2023-05-25T08:44:18.737Z,70.6
2023-05-25T08:46:18.723Z,70.6
2023-05-25T08:50:18.759Z,70.8
2023-05-25T08:52:18.728Z,71
2023-05-25T08:54:18.779Z,71.2
2023-05-25T08:56:18.731Z,71.3
2023-05-25T08:58:18.727Z,71.2
2023-05-25T09:00:18.808Z,71.2
2023-05-25T09:02:18.826Z,71.3
2023-05-25T09:04:18.762Z,71.3
2023-05-25T09:06:18.787Z,71.7
2023-05-25T09:08:18.701Z,71.7
2023-05-25T09:10:18.797Z,71.8
2023-05-25T09:12:18.707Z,71.9
2023-05-25T09:14:18.717Z,71.9
2023-05-25T09:16:18.834Z,72.2
2023-05-25T09:18:18.764Z,72.1
2023-05-25T09:20:18.821Z,72.1
2023-05-25T09:22:18.801Z,71.9
2023-05-25T09:24:18.774Z,72.1
2023-05-25T09:26:18.732Z,72.4
2023-05-25T09:28:26.653Z,72.4
2023-05-25T09:30:18.727Z,72.4
2023-05-25T09:32:18.815Z,72.6
2023-05-25T09:34:18.708Z,72.5
2023-05-25T09:36:18.814Z,72.5
2023-05-25T09:38:19.072Z,72.9
2023-05-25T09:40:20.095Z,72.6
2023-05-25T09:42:20.233Z,73.1
2023-05-25T09:44:29.115Z,73
2023-05-25T09:46:18.855Z,73.1
2023-05-25T09:48:18.702Z,73
2023-05-25T09:50:21.464Z,73.5
2023-05-25T09:52:23.247Z,73.1
2023-05-25T09:54:18.762Z,73.1
2023-05-25T09:56:18.839Z,73.1
2023-05-25T09:58:20.097Z,72.9
2023-05-25T10:00:20.036Z,73.1
2023-05-25T10:02:18.768Z,73
2023-05-25T10:04:18.851Z,73
2023-05-25T10:06:18.659Z,73.1
2023-05-25T10:08:18.876Z,72.9
2023-05-25T10:10:18.782Z,73
2023-05-25T10:12:18.823Z,72.9
2023-05-25T10:14:20.214Z,73
2023-05-25T10:16:18.724Z,73
2023-05-25T10:18:18.722Z,72.9
2023-05-25T10:20:18.791Z,72.9
2023-05-25T10:22:18.890Z,73.4
2023-05-25T10:23:37.043Z,73.4
2023-05-25T10:26:18.783Z,72.8
2023-05-25T10:28:18.725Z,72.7
2023-05-25T10:30:19.980Z,72.8
2023-05-25T10:32:48.682Z,72.7
2023-05-25T10:34:18.656Z,72.7
2023-05-25T10:36:18.726Z,72.8
2023-05-25T10:38:18.862Z,72
2023-05-25T10:40:18.687Z,72.1
2023-05-25T10:42:18.692Z,72.3
2023-05-25T10:44:19.023Z,72.6
2023-05-25T10:46:19.971Z,72
2023-05-25T10:48:18.830Z,72
2023-05-25T10:50:19.896Z,71.5
2023-05-25T10:52:18.708Z,70.8
2023-05-25T10:54:47.970Z,71.1
2023-05-25T10:56:18.653Z,70.3
2023-05-25T10:58:18.655Z,68.7
2023-05-25T11:00:24.603Z,69.5
2023-05-25T11:02:18.763Z,69.4
2023-05-25T11:04:18.709Z,69.6
2023-05-25T11:06:18.683Z,70
2023-05-25T11:08:18.654Z,68.8
2023-05-25T11:10:18.707Z,68.6
2023-05-25T11:12:18.620Z,68.9
2023-05-25T11:14:18.730Z,69.2
2023-05-25T11:16:18.712Z,69.4
2023-05-25T11:18:41.327Z,70.2
2023-05-25T11:20:18.809Z,70.4
2023-05-25T11:22:24.624Z,70.2
2023-05-25T11:24:22.910Z,70
2023-05-25T11:26:18.637Z,70.4
2023-05-25T11:28:18.646Z,69.9
2023-05-25T11:30:20.091Z,70
2023-05-25T11:32:18.600Z,70
2023-05-25T11:34:37.630Z,69.3
2023-05-25T11:36:19.855Z,69.2
2023-05-25T11:38:18.611Z,69.3
2023-05-25T11:40:30.392Z,69.4
2023-05-25T11:42:18.657Z,68.8
2023-05-25T11:44:18.625Z,67.7
2023-05-25T11:46:18.758Z,67.6
2023-05-25T11:48:18.692Z,67.2
2023-05-25T11:50:18.588Z,66.8
2023-05-25T11:52:18.726Z,67.4
2023-05-25T11:54:21.129Z,66.5
2023-05-25T11:56:30.971Z,65.9
2023-05-25T11:58:18.695Z,66.7
2023-05-25T12:00:19.703Z,66.2
2023-05-25T12:02:19.704Z,65.3
2023-05-25T12:04:21.152Z,65.3
2023-05-25T12:06:22.448Z,65.3
2023-05-25T12:07:47.453Z,63.6
2023-05-25T12:09:48.618Z,64.3
2023-05-25T12:11:47.585Z,64.5
2023-05-25T12:13:47.451Z,63.7
2023-05-25T12:15:47.571Z,64.1
2023-05-25T12:17:47.546Z,62.2
2023-05-25T12:18:58.957Z,62.2
2023-05-25T12:19:47.532Z,61.5
2023-05-25T12:21:47.487Z,62.8
2023-05-25T12:23:48.750Z,62.4
2023-05-25T12:25:51.098Z,62.7
2023-05-25T12:27:47.373Z,61.9
2023-05-25T12:29:47.382Z,63
2023-05-25T12:31:48.698Z,62.3
2023-05-25T12:33:48.584Z,63.1
2023-05-25T12:35:48.703Z,62.5
2023-05-25T12:37:48.522Z,62.2
2023-05-25T12:39:48.824Z,63
2023-05-25T12:41:47.516Z,63
2023-05-25T12:43:47.393Z,63
2023-05-25T12:45:48.811Z,63.2
2023-05-25T12:47:47.607Z,63.1
2023-05-25T12:49:47.490Z,61.9
2023-05-25T12:51:47.439Z,60.9
2023-05-25T12:53:47.378Z,59.9
2023-05-25T12:55:47.409Z,60.2
2023-05-25T12:57:47.476Z,59.7
2023-05-25T12:59:47.504Z,57.6
2023-05-25T13:01:47.453Z,59
2023-05-25T13:03:47.385Z,60.1
2023-05-25T13:05:47.428Z,59.5
2023-05-25T13:07:47.362Z,59
2023-05-25T13:09:47.439Z,59
2023-05-25T13:11:58.014Z,59.2
2023-05-25T13:13:47.533Z,59.8
2023-05-25T13:15:48.659Z,59.1
2023-05-25T13:17:47.471Z,58.5
2023-05-25T13:19:47.399Z,60
2023-05-25T13:21:47.483Z,59.7
2023-05-25T13:23:48.667Z,58.5
2023-05-25T13:25:51.822Z,59.2
2023-05-25T13:27:47.500Z,58.2
2023-05-25T13:29:47.350Z,58.7
2023-05-25T13:31:49.289Z,58.6
2023-05-25T13:33:49.923Z,59
2023-05-25T13:35:47.350Z,58.3
2023-05-25T13:37:47.369Z,59.1
2023-05-25T13:39:47.414Z,58.6
2023-05-25T13:41:47.345Z,58.2
2023-05-25T13:43:47.360Z,59.3
2023-05-25T13:45:47.422Z,59.5
2023-05-25T13:47:47.833Z,59.6
2023-05-25T13:49:47.389Z,60.2
2023-05-25T13:51:47.307Z,60.6
2023-05-25T13:53:47.328Z,61
2023-05-25T13:55:47.426Z,61.5
2023-05-25T13:57:48.376Z,61.1
2023-05-25T13:59:51.767Z,60.5
2023-05-25T14:01:47.359Z,61.4
2023-05-25T14:03:49.999Z,61
2023-05-25T14:05:48.449Z,60.8
2023-05-25T14:07:48.428Z,61
2023-05-25T14:09:47.290Z,60.7
2023-05-25T14:11:48.927Z,61.6
2023-05-25T14:13:47.331Z,61.7
2023-05-25T14:15:47.732Z,60.7
2023-05-25T14:17:47.292Z,60.8
2023-05-25T14:19:47.247Z,60.3
2023-05-25T14:21:53.916Z,61.8
2023-05-25T14:23:47.295Z,61.7
2023-05-25T14:25:47.419Z,60.7
2023-05-25T14:27:47.291Z,60.8
2023-05-25T14:29:47.443Z,61.2
2023-05-25T14:31:47.413Z,61.8
2023-05-25T14:33:47.328Z,62
2023-05-25T14:35:47.492Z,61.5
2023-05-25T14:37:47.246Z,59.9
2023-05-25T14:39:47.469Z,59.3
2023-05-25T14:41:47.274Z,59.9
2023-05-25T14:43:47.393Z,57.2
2023-05-25T14:45:49.744Z,56.6
2023-05-25T14:47:47.349Z,56.1
2023-05-25T14:49:47.346Z,56.1
2023-05-25T14:51:47.254Z,56.6
2023-05-25T14:53:47.274Z,55.4
2023-05-25T14:55:48.624Z,55.4
2023-05-25T14:57:47.401Z,55.5
2023-05-25T14:59:47.287Z,56.6
2023-05-25T15:01:47.356Z,57.2
2023-05-25T15:03:47.537Z,56.7
2023-05-25T15:05:47.279Z,56.7
2023-05-25T15:07:47.357Z,56.3
2023-05-25T15:09:47.243Z,56.2
2023-05-25T15:11:47.200Z,56.7
2023-05-25T15:13:47.231Z,57.2
2023-05-25T15:15:47.452Z,56.4
2023-05-25T15:17:48.241Z,56.4
2023-05-25T15:19:47.310Z,55.7
2023-05-25T15:21:48.472Z,56.6
2023-05-25T15:23:47.283Z,57.2
2023-05-25T15:25:48.504Z,56.2
2023-05-25T15:27:47.191Z,55.8
2023-05-25T15:29:47.270Z,56.4
2023-05-25T15:31:47.272Z,54.6
2023-05-25T15:33:51.861Z,53.5
2023-05-25T15:35:47.310Z,52.7
2023-05-25T15:37:47.352Z,53
2023-05-25T15:39:47.423Z,53.1
2023-05-25T15:41:47.165Z,51.4
2023-05-25T15:43:49.252Z,52.5
2023-05-25T15:45:47.323Z,52.3
2023-05-25T15:47:47.192Z,51.2
2023-05-25T15:49:47.222Z,50.2
2023-05-25T15:51:47.143Z,51.3
2023-05-25T15:53:47.174Z,51.6
2023-05-25T15:55:47.275Z,50.1
2023-05-25T15:57:47.166Z,48.6
2023-05-25T15:59:47.124Z,48.8
2023-05-25T16:01:47.244Z,49.1
2023-05-25T16:03:47.278Z,47.3
2023-05-25T16:05:48.599Z,47.3
2023-05-25T16:07:47.273Z,48.1
2023-05-25T16:09:48.559Z,47.5
2023-05-25T16:11:47.154Z,47.3
2023-05-25T16:13:47.167Z,47.9
2023-05-25T16:15:47.268Z,47.9
2023-05-25T16:17:47.111Z,47.5
2023-05-25T16:19:47.154Z,48
2023-05-25T16:21:47.133Z,48.3
2023-05-25T16:23:47.180Z,47.4
2023-05-25T16:25:47.343Z,48.1
2023-05-25T16:27:51.475Z,46.5
2023-05-25T16:29:47.171Z,46
2023-05-25T16:31:47.247Z,47.2
2023-05-25T16:33:47.273Z,47
2023-05-25T16:35:47.424Z,46.2
2023-05-25T16:37:48.556Z,46.1
2023-05-25T16:39:47.223Z,45.6
2023-05-25T16:41:48.886Z,46.3
2023-05-25T16:43:47.230Z,44.6
2023-05-25T16:45:47.625Z,44.1
2023-05-25T16:47:47.128Z,44.9
2023-05-25T16:49:47.176Z,44.6
2023-05-25T16:51:47.138Z,45.4
2023-05-25T16:53:47.140Z,46.1
2023-05-25T16:55:47.212Z,47.2
2023-05-25T16:57:47.118Z,46.8
2023-05-25T16:59:47.123Z,47.6
2023-05-25T17:01:47.161Z,47.7
2023-05-25T17:03:47.260Z,48.1
2023-05-25T17:05:47.260Z,48.2
2023-05-25T17:07:47.111Z,48.9
2023-05-25T17:09:47.204Z,49.5
2023-05-25T17:11:48.367Z,50.5
2023-05-25T17:13:47.121Z,49.7
2023-05-25T17:15:47.315Z,48.5
2023-05-25T17:17:48.317Z,46.6
2023-05-25T17:19:47.074Z,48
2023-05-25T17:21:47.066Z,49.8
2023-05-25T17:23:47.099Z,51.4
2023-05-25T17:25:47.268Z,48.4
2023-05-25T17:27:47.484Z,49.4
2023-05-25T17:29:47.068Z,49
2023-05-25T17:31:48.834Z,48.3
2023-05-25T17:33:47.116Z,48.8
2023-05-25T17:35:47.157Z,49.9
2023-05-25T17:37:47.166Z,50.7
2023-05-25T17:39:47.111Z,48.9
2023-05-25T17:41:47.084Z,48.6
2023-05-25T17:43:47.132Z,45.5
2023-05-25T17:45:47.337Z,44.7
2023-05-25T17:47:47.037Z,47
2023-05-25T17:49:47.085Z,46.5
2023-05-25T17:51:47.073Z,48.1
2023-05-25T17:53:47.136Z,47.6
2023-05-25T17:55:47.198Z,48
2023-05-25T17:57:47.028Z,47.5
2023-05-25T17:59:47.245Z,46.9
2023-05-25T18:01:47.082Z,46.1
2023-05-25T18:03:47.238Z,47.6
2023-05-25T18:05:47.202Z,46.6
2023-05-25T18:07:47.213Z,46.8
2023-05-25T18:09:47.151Z,46.4
2023-05-25T18:11:47.050Z,47.2
2023-05-25T18:13:47.181Z,47.9
2023-05-25T18:15:48.471Z,45.9
2023-05-25T18:17:47.079Z,46.3
2023-05-25T18:19:47.086Z,46
2023-05-25T18:21:48.518Z,46.7
2023-05-25T18:23:47.250Z,46.3
2023-05-25T18:25:47.181Z,45.9
2023-05-25T18:27:47.102Z,44.9
2023-05-25T18:29:47.049Z,43.6
2023-05-25T18:31:48.298Z,43
2023-05-25T18:33:47.064Z,43.8
2023-05-25T18:35:47.227Z,43.9
2023-05-25T18:37:47.139Z,45.2
2023-05-25T18:39:49.521Z,44.1
2023-05-25T18:41:47.039Z,42.9
2023-05-25T18:43:49.544Z,43.6
2023-05-25T18:45:47.166Z,43.6
2023-05-25T18:47:47.057Z,42.6
2023-05-25T18:49:47.004Z,42.9
2023-05-25T18:51:48.047Z,44.1
2023-05-25T18:53:48.250Z,44.6
2023-05-25T18:55:47.190Z,43.2
2023-05-25T18:57:47.037Z,44.3
2023-05-25T18:59:47.345Z,44.9
2023-05-25T19:01:47.004Z,45.5
2023-05-25T19:03:47.230Z,44.6
2023-05-25T19:05:48.621Z,44.4
2023-05-25T19:09:47.047Z,44.1
2023-05-25T19:11:47.224Z,44.9
2023-05-25T19:13:47.051Z,44.1
2023-05-25T19:15:49.539Z,44.6
2023-05-25T19:17:47.116Z,43
2023-05-25T19:19:46.988Z,41.6
2023-05-25T19:21:48.423Z,42.1
2023-05-25T19:23:46.951Z,43.8
2023-05-25T19:25:47.259Z,44.5
2023-05-25T19:27:48.076Z,44.3
2023-05-25T19:29:46.992Z,43.6
2023-05-25T19:31:46.973Z,43.2
2023-05-25T19:33:46.966Z,43.6
2023-05-25T19:35:47.014Z,43.7
2023-05-25T19:37:46.990Z,44.5
2023-05-25T19:39:46.937Z,42.5
2023-05-25T19:41:47.196Z,44.8
2023-05-25T19:43:46.910Z,43.4
2023-05-25T19:45:47.137Z,42.9
2023-05-25T19:47:47.208Z,44.1
2023-05-25T19:49:51.233Z,44.2
2023-05-25T19:51:46.887Z,44
2023-05-25T19:53:51.275Z,43.6
2023-05-25T19:55:47.050Z,43.1
2023-05-25T19:57:46.988Z,43.3
2023-05-25T19:59:46.902Z,43.2
2023-05-25T20:01:47.036Z,44.2
2023-05-25T20:03:46.986Z,44
2023-05-25T20:05:48.264Z,45.4
2023-05-25T20:07:47.236Z,45.1
2023-05-25T20:09:46.984Z,44.9
2023-05-25T20:11:46.969Z,44.7
2023-05-25T20:13:51.320Z,46
2023-05-25T20:15:47.242Z,46.7
2023-05-25T20:17:47.032Z,47.4
2023-05-25T20:19:47.035Z,47.4
2023-05-25T20:21:48.059Z,47.2
2023-05-25T20:23:52.600Z,47.8
2023-05-25T20:25:47.226Z,45.5
2023-05-25T20:27:46.867Z,46.5
2023-05-25T20:29:46.952Z,47.2
2023-05-25T20:31:48.287Z,47.5
2023-05-25T20:33:47.211Z,47.4
2023-05-25T20:35:47.047Z,47.5
2023-05-25T20:37:46.986Z,47.5
2023-05-25T20:39:46.883Z,47.5
2023-05-25T20:41:46.879Z,46.2
2023-05-25T20:43:47.051Z,46.9
2023-05-25T20:45:48.390Z,47.6
2023-05-25T20:47:46.931Z,47.5
2023-05-25T20:49:46.924Z,47
2023-05-25T20:51:46.920Z,47.7
2023-05-25T20:53:46.876Z,47.4
2023-05-25T20:55:47.055Z,47.9
2023-05-25T20:57:47.855Z,47.8
2023-05-25T20:59:46.929Z,48
2023-05-25T21:01:47.003Z,48.1
2023-05-25T21:03:47.023Z,48.2
2023-05-25T21:05:47.237Z,47.9
2023-05-25T21:07:48.452Z,47.8
2023-05-25T21:09:48.270Z,48.1
2023-05-25T21:11:46.867Z,48.1
2023-05-25T21:13:46.913Z,48.4
2023-05-25T21:15:48.001Z,48.6
2023-05-25T21:17:46.969Z,49.6
2023-05-25T21:19:46.845Z,49.2
2023-05-25T21:21:48.087Z,49.1
2023-05-25T21:23:46.866Z,47.4
2023-05-25T21:25:48.265Z,48.3
2023-05-25T21:27:46.956Z,49.3
2023-05-25T21:29:46.950Z,49.5
2023-05-25T21:31:46.930Z,50.5
2023-05-25T21:33:46.968Z,49.4
2023-05-25T21:35:48.230Z,49.7
2023-05-25T21:37:46.917Z,49.5
2023-05-25T21:39:46.933Z,49.6
2023-05-25T21:41:46.860Z,49.1
2023-05-25T21:43:46.957Z,49.3
2023-05-25T21:45:47.007Z,48.6
2023-05-25T21:47:46.947Z,49.6
2023-05-25T21:49:51.409Z,49.2
2023-05-25T21:51:46.905Z,47
2023-05-25T21:53:46.873Z,47.7
2023-05-25T21:55:46.982Z,47.1
2023-05-25T21:57:49.804Z,47.9
2023-05-25T21:59:48.184Z,48
2023-05-25T22:01:51.309Z,47.4
2023-05-25T22:03:47.003Z,47.2
2023-05-25T22:05:47.138Z,47.5
2023-05-25T22:07:46.941Z,47.9
2023-05-25T22:09:46.963Z,47
2023-05-25T22:11:49.685Z,48.3
2023-05-25T22:13:46.977Z,48.5
2023-05-25T22:15:48.423Z,49.4
2023-05-25T22:17:46.939Z,49.2
2023-05-25T22:19:49.526Z,49.7
2023-05-25T22:21:46.831Z,49.8
2023-05-25T22:23:46.761Z,50
2023-05-25T22:25:47.041Z,50.1
2023-05-25T22:27:49.386Z,50.2
2023-05-25T22:29:51.087Z,50.3
2023-05-25T22:31:46.867Z,51
2023-05-25T22:33:49.482Z,51.1
2023-05-25T22:35:48.078Z,50.6
2023-05-25T22:37:46.815Z,51.3
2023-05-25T22:39:46.938Z,50.8
2023-05-25T22:41:46.867Z,51.1
2023-05-25T22:43:46.957Z,51.3
2023-05-25T22:45:46.939Z,51.8
2023-05-25T22:47:39.970Z,51.8
2023-05-25T22:49:12.327Z,51.9
2023-05-25T22:50:31.012Z,51.8
2023-05-25T22:52:31.168Z,51.6
2023-05-25T22:54:30.934Z,51.4
2023-05-25T22:56:32.976Z,51.6
2023-05-25T22:58:31.124Z,52.6
2023-05-25T23:00:30.987Z,51.7
2023-05-25T23:02:31.353Z,51.8
2023-05-25T23:04:33.051Z,52.2
2023-05-25T23:06:32.415Z,52.2
2023-05-25T23:08:31.374Z,52.2
2023-05-25T23:10:31.045Z,52
2023-05-25T23:13:00.351Z,52.3
2023-05-25T23:14:32.088Z,52.5
2023-05-25T23:16:31.016Z,53.5
2023-05-25T23:18:36.651Z,53.3
2023-05-25T23:20:31.075Z,52.9
2023-05-25T23:22:31.033Z,53.2
2023-05-25T23:24:31.012Z,53.2
2023-05-25T23:26:30.983Z,53.4
2023-05-25T23:28:30.920Z,53.6
2023-05-25T23:30:31.094Z,53.7
2023-05-25T23:32:31.161Z,54.1
2023-05-25T23:34:53.691Z,53.5
2023-05-25T23:36:31.025Z,54.5
2023-05-25T23:38:30.971Z,54.4
2023-05-25T23:40:33.419Z,54.3
2023-05-25T23:42:30.955Z,54
2023-05-25T23:44:30.902Z,54.1
2023-05-25T23:46:32.290Z,54.2
2023-05-25T23:48:30.931Z,54.4
2023-05-25T23:50:30.908Z,54.3
2023-05-25T23:52:31.127Z,54.3
2023-05-25T23:54:30.959Z,54.5
2023-05-25T23:56:32.330Z,54.8
2023-05-25T23:58:30.978Z,54.9
